Abington, Connecticut
Current Conditions -  °F | °C
As of 7:52 PM on Monday 26 Jan 2015 (Local Time) from KIJD Reporting Station
Light Snow Light Snow  
Wind Chill: 12°   Ceiling: 1800
Heat Index: 24°   Visibility: 1.2mi
Dew Point: 19°   Wind: 14mph
Humidity: 81%   Direction: 30°NNE
Pressure: 29.91"   Gusts: 22mph
Location:  41.86°N, 72.01°W
Report Text: KIJD 270052Z AUTO 03012G19KT 1 1/4SM -SN OVC018 M04/M07 A2991 RMK AO2 SLP131 P0000 T10441072
Loading
Personal Weather Stations






























Interactive Weather Map New forecast layout! Learn more

10-Day Weather Forecast

Advertisements
Track Severe Weather on mobile